createdAt,value
2024-03-29T00:01:14.173Z,0.20008087158203125
2024-03-29T00:11:14.191Z,0.4001617431640625
2024-03-29T00:21:14.107Z,0.30002593994140625
2024-03-29T00:31:14.023Z,0.30002593994140625
2024-03-29T00:41:13.980Z,0.4001617431640625
2024-03-29T00:51:13.927Z,0.5001068115234375
2024-03-29T01:01:13.824Z,0.4001617431640625
2024-03-29T01:11:13.694Z,0.6000518798828125
2024-03-29T01:21:13.610Z,0.4001617431640625
2024-03-29T01:31:13.610Z,0.6000518798828125
2024-03-29T01:41:14.072Z,0.4001617431640625
2024-03-29T01:51:13.986Z,0.30002593994140625
2024-03-29T02:01:14.517Z,0.4001617431640625
2024-03-29T02:11:15.024Z,0.6000518798828125
2024-03-29T02:21:15.102Z,0.6000518798828125
2024-03-29T02:31:14.857Z,0.5001068115234375
2024-03-29T02:41:14.804Z,0.6999969482421875
2024-03-29T02:51:14.670Z,0.6000518798828125
2024-03-29T03:01:15.427Z,0.4001617431640625
2024-03-29T03:11:16.749Z,0.6000518798828125
2024-03-29T03:21:16.682Z,0.5001068115234375
2024-03-29T03:31:16.553Z,0.6000518798828125
2024-03-29T03:41:16.615Z,0.800323486328125
2024-03-29T03:51:17.132Z,0.4001617431640625
2024-03-29T04:01:17.081Z,0.4001617431640625
2024-03-29T04:11:16.975Z,0.6000518798828125
2024-03-29T04:21:16.933Z,0.800323486328125
2024-03-29T04:31:16.941Z,0.9002685546875
2024-03-29T04:41:18.240Z,0.6999969482421875
2024-03-29T04:51:18.553Z,0.800323486328125
2024-03-29T05:01:19.643Z,1.10015869140625
2024-03-29T05:11:19.641Z,1.000213623046875
2024-03-29T05:21:20.364Z,1.10015869140625
2024-03-29T05:31:20.291Z,0.6999969482421875
2024-03-29T05:41:20.333Z,0.800323486328125
2024-03-29T05:51:20.139Z,0.6999969482421875
2024-03-29T06:01:20.071Z,1.000213623046875
2024-03-29T06:11:20.042Z,1.399993896484375
2024-03-29T06:21:19.929Z,1.000213623046875
2024-03-29T06:31:20.404Z,1.10015869140625
2024-03-29T06:41:21.703Z,0.9002685546875
2024-03-29T06:51:20.259Z,1.300048828125
2024-03-29T07:01:20.174Z,1.6998291015625
2024-03-29T07:11:20.096Z,1.300048828125
2024-03-29T07:21:20.075Z,1.300048828125
2024-03-29T07:31:20.088Z,1.60064697265625
2024-03-29T07:41:20.033Z,0.9002685546875
2024-03-29T07:51:19.818Z,0.6999969482421875
2024-03-29T08:01:19.767Z,0.9002685546875
2024-03-29T08:11:19.996Z,1.60064697265625
2024-03-29T08:21:19.895Z,0.6999969482421875
2024-03-29T08:31:20.548Z,1.10015869140625
2024-03-29T08:41:20.566Z,1.000213623046875
2024-03-29T08:51:20.402Z,1.000213623046875
2024-03-29T09:01:20.331Z,1.49993896484375
2024-03-29T09:11:20.277Z,1.60064697265625
2024-03-29T09:21:20.203Z,1.300048828125
2024-03-29T09:31:20.115Z,1.200103759765625
2024-03-29T09:41:20.077Z,1.49993896484375
2024-03-29T09:51:19.987Z,1.60064697265625
2024-03-29T10:01:19.925Z,1.6998291015625
2024-03-29T10:11:19.893Z,1.60064697265625
2024-03-29T10:21:19.765Z,1.49993896484375
2024-03-29T10:31:19.697Z,1.300048828125
2024-03-29T10:41:20.515Z,1.300048828125
2024-03-29T10:51:20.447Z,1.399993896484375
2024-03-29T11:01:20.358Z,1.49993896484375
2024-03-29T11:11:20.308Z,0.9002685546875
2024-03-29T11:21:20.232Z,1.49993896484375
2024-03-29T11:31:20.144Z,1.399993896484375
2024-03-29T11:41:20.072Z,1.399993896484375
2024-03-29T11:51:20.822Z,1.200103759765625
2024-03-29T12:01:20.757Z,1.200103759765625
2024-03-29T12:11:23.088Z,1.10015869140625
2024-03-29T12:21:20.614Z,1.10015869140625
2024-03-29T12:31:20.544Z,0.6999969482421875
2024-03-29T12:41:20.552Z,1.200103759765625
2024-03-29T12:51:20.424Z,1.000213623046875
2024-03-29T13:01:20.328Z,0.800323486328125
2024-03-29T13:11:20.266Z,0.6999969482421875
2024-03-29T13:21:20.207Z,1.000213623046875
2024-03-29T13:31:20.126Z,0.9002685546875
2024-03-29T13:41:20.941Z,0.9002685546875
2024-03-29T13:51:20.878Z,0.5001068115234375
2024-03-29T14:01:20.812Z,0.800323486328125
2024-03-29T14:11:20.747Z,0.800323486328125
2024-03-29T14:21:20.684Z,1.000213623046875
2024-03-29T14:31:22.335Z,0.6000518798828125
2024-03-29T14:41:20.530Z,0.9002685546875
2024-03-29T14:51:20.453Z,0.6000518798828125
2024-03-29T15:01:20.380Z,0.5001068115234375
2024-03-29T15:11:21.080Z,0.6000518798828125
2024-03-29T15:21:22.110Z,0.10004043579101562
2024-03-29T15:31:23.182Z,0.30002593994140625
2024-03-29T15:41:24.095Z,0.30002593994140625
2024-03-29T15:51:25.455Z,0.5001068115234375
2024-03-29T16:01:25.375Z,0.6000518798828125
2024-03-29T16:11:26.303Z,0.6999969482421875
2024-03-29T16:21:26.193Z,1.000213623046875
2024-03-29T16:31:27.823Z,0.5001068115234375
2024-03-29T16:41:28.606Z,0.5001068115234375
2024-03-29T16:51:29.868Z,1.000213623046875
2024-03-29T17:01:31.395Z,0.4001617431640625
2024-03-29T17:11:32.871Z,0.4001617431640625
2024-03-29T17:21:34.068Z,0.30002593994140625
2024-03-29T17:31:35.710Z,0.30002593994140625
2024-03-29T17:41:36.427Z,0.10004043579101562
2024-03-29T17:51:38.032Z,0.6000518798828125
2024-03-29T18:01:38.902Z,0.4001617431640625
2024-03-29T18:11:40.343Z,0.5001068115234375
2024-03-29T18:21:41.126Z,0.30002593994140625
2024-03-29T18:32:45.095Z,0.30002593994140625
2024-03-29T18:41:42.873Z,0.20008087158203125
2024-03-29T18:51:44.455Z,0.4001617431640625
2024-03-29T19:01:45.974Z,0.10004043579101562
2024-03-29T19:11:46.743Z,0.20008087158203125
2024-03-29T19:21:47.539Z,0.30002593994140625
2024-03-29T19:31:48.869Z,0.20008087158203125
2024-03-29T19:41:49.751Z,0.10004043579101562
2024-03-29T19:51:51.081Z,0.20008087158203125
2024-03-29T20:01:51.776Z,0.20008087158203125
2024-03-29T20:11:52.957Z,0.20008087158203125
2024-03-29T20:21:54.147Z,0.4001617431640625
2024-03-29T20:31:55.409Z,0.10004043579101562
2024-03-29T20:41:56.162Z,0.10004043579101562
2024-03-29T20:51:56.750Z,0
2024-03-29T21:01:57.444Z,0
2024-03-29T21:11:59.140Z,0.10004043579101562
2024-03-29T21:21:59.132Z,0.10004043579101562
2024-03-29T21:31:59.046Z,0.30002593994140625
2024-03-29T21:41:58.981Z,0.10004043579101562
2024-03-29T21:52:00.646Z,0.10004043579101562
2024-03-29T22:02:01.959Z,0.20008087158203125
2024-03-29T22:12:03.423Z,0.10004043579101562
2024-03-29T22:22:04.886Z,0
2024-03-29T22:32:06.223Z,0.10004043579101562
2024-03-29T22:42:07.681Z,0.6000518798828125
2024-03-29T22:52:09.269Z,0.4001617431640625
2024-03-29T23:02:10.792Z,0.20008087158203125
2024-03-29T23:12:11.002Z,0.20008087158203125
2024-03-29T23:22:11.754Z,0.30002593994140625
2024-03-29T23:32:12.684Z,0.6999969482421875
2024-03-29T23:42:13.376Z,0.20008087158203125
2024-03-29T23:52:14.958Z,0.30002593994140625
